Time;durP1;ratioP1;P1;durP2;ratioP2;P2;SDS_P1;SDS_P2;PMS_P1;PMS_P2;Temp;Humidity;BMP_temperature;BMP_pressure;BME280_temperature;BME280_humidity;BME280_pressure;Samples;Min_cycle;Max_cycle;Signal;HPM_P1;HPM_P2
2023/07/02 00:00:15;;;;;;;1.48;0.93;;;;;;;24.36;57.30;98911.75;4492349;31;33937;-85
2023/07/02 00:02:42;;;;;;;2.55;1.60;;;;;;;24.26;57.70;98912.81;4492307;31;33441;-85
2023/07/02 00:05:10;;;;;;;2.15;1.52;;;;;;;24.29;57.52;98911.59;4477985;31;34626;-85
2023/07/02 00:07:38;;;;;;;1.65;1.33;;;;;;;24.23;57.77;98910.47;4475094;31;34735;-85
2023/07/02 00:10:06;;;;;;;1.40;1.30;;;;;;;24.12;58.08;98916.25;4464510;31;33472;-85
2023/07/02 00:12:34;;;;;;;2.87;2.30;;;;;;;24.18;57.71;98909.31;4464336;31;33777;-85
2023/07/02 00:15:01;;;;;;;3.12;1.48;;;;;;;24.24;57.51;98908.59;4478845;31;33913;-85
2023/07/02 00:17:30;;;;;;;1.05;1.05;;;;;;;24.28;57.31;98904.53;4464590;31;33956;-85
2023/07/02 00:20:06;;;;;;;1.60;1.58;;;;;;;24.10;57.94;98904.78;4478929;31;33980;-85
2023/07/02 00:22:36;;;;;;;1.83;1.73;;;;;;;24.28;57.10;98905.38;4478171;31;31627;-85
2023/07/02 00:25:04;;;;;;;1.62;1.52;;;;;;;24.22;57.20;98906.09;4478170;31;34095;-85
2023/07/02 00:27:31;;;;;;;2.00;1.80;;;;;;;24.43;56.49;98910.06;4475970;31;33288;-85
2023/07/02 00:29:59;;;;;;;1.87;1.12;;;;;;;24.32;56.71;98899.62;4471732;31;33235;-85
2023/07/02 00:32:26;;;;;;;2.58;1.90;;;;;;;24.43;56.25;98902.78;4476649;31;32491;-85
2023/07/02 00:34:54;;;;;;;1.62;1.52;;;;;;;24.38;56.34;98902.50;4469222;31;34415;-85
2023/07/02 00:37:21;;;;;;;4.32;1.90;;;;;;;24.40;56.20;98907.69;4463459;31;33676;-86
2023/07/02 00:39:49;;;;;;;1.90;1.73;;;;;;;24.44;56.02;98903.63;4462999;31;33409;-86
2023/07/02 00:42:17;;;;;;;1.42;1.33;;;;;;;24.21;56.76;98900.84;4453099;31;31920;-86
2023/07/02 00:44:45;;;;;;;2.92;1.87;;;;;;;24.27;56.47;98908.25;4476608;31;33559;-86
2023/07/02 00:47:13;;;;;;;3.22;1.65;;;;;;;24.28;56.41;98905.38;4479300;31;33514;-85
2023/07/02 00:49:41;;;;;;;2.10;1.50;;;;;;;24.25;56.39;98905.72;4463923;31;31721;-85
2023/07/02 00:52:09;;;;;;;3.17;1.67;;;;;;;24.18;56.39;98903.91;4474091;31;33701;-85
2023/07/02 00:54:36;;;;;;;3.72;2.97;;;;;;;24.26;55.88;98907.41;4468050;31;32324;-85
2023/07/02 00:57:05;;;;;;;1.62;1.52;;;;;;;24.13;56.53;98909.00;4464283;31;34467;-85
2023/07/02 00:59:35;;;;;;;3.08;1.90;;;;;;;24.07;56.48;98905.16;4474369;31;33102;-85
2023/07/02 01:02:05;;;;;;;0.85;0.75;;;;;;;24.02;56.61;98902.97;4477639;31;34113;-85
2023/07/02 01:04:32;;;;;;;3.50;1.65;;;;;;;24.18;56.07;98899.34;4454699;31;33075;-85
2023/07/02 01:07:01;;;;;;;1.67;1.58;;;;;;;24.10;56.36;98899.38;4465433;31;33118;-85
2023/07/02 01:09:29;;;;;;;1.98;1.83;;;;;;;23.99;56.66;98903.31;4463464;31;33962;-85
2023/07/02 01:11:59;;;;;;;2.20;1.98;;;;;;;24.01;56.63;98908.53;4479031;31;32842;-85
2023/07/02 01:14:35;;;;;;;1.98;1.77;;;;;;;24.09;56.33;98902.28;4488819;31;34586;-84
2023/07/02 01:17:06;;;;;;;3.10;1.87;;;;;;;24.06;56.26;98900.75;4466584;31;33032;-85
2023/07/02 01:19:54;;;;;;;2.17;1.83;;;;;;;24.07;56.26;98899.75;4476563;31;33842;-85
2023/07/02 01:22:26;;;;;;;1.77;1.42;;;;;;;24.13;56.04;98900.91;4476778;31;32981;-84
2023/07/02 01:24:54;;;;;;;4.10;2.15;;;;;;;23.95;56.47;98910.06;4466957;31;33896;-85
2023/07/02 01:27:22;;;;;;;1.70;1.60;;;;;;;23.99;56.16;98899.78;4475679;31;34162;-85
2023/07/02 01:29:53;;;;;;;1.12;1.08;;;;;;;24.08;55.86;98897.91;4477574;31;33611;-85
2023/07/02 01:32:22;;;;;;;2.47;1.60;;;;;;;23.99;56.11;98899.78;4475380;31;31563;-84
2023/07/02 01:34:53;;;;;;;8.13;2.12;;;;;;;23.98;56.02;98908.91;4463633;31;32744;-84
2023/07/02 01:37:21;;;;;;;2.60;2.40;;;;;;;23.93;55.95;98912.13;4478162;32;34036;-85
2023/07/02 01:39:48;;;;;;;2.15;1.92;;;;;;;24.13;55.01;98901.75;4478517;31;34181;-84
2023/07/02 01:42:18;;;;;;;2.53;1.50;;;;;;;23.98;55.19;98909.72;4461163;31;32099;-85
2023/07/02 01:44:48;;;;;;;1.02;0.98;;;;;;;23.96;55.32;98905.50;4462342;31;32342;-84
2023/07/02 01:47:16;;;;;;;1.35;1.23;;;;;;;23.85;55.50;98905.91;4459625;31;33552;-84
2023/07/02 01:49:44;;;;;;;1.58;1.48;;;;;;;23.73;55.66;98903.56;4465556;31;34065;-84
2023/07/02 01:52:12;;;;;;;1.10;0.95;;;;;;;23.87;55.40;98907.41;4475700;31;33094;-84
2023/07/02 01:54:39;;;;;;;1.05;0.93;;;;;;;23.81;55.50;98907.25;4467698;31;34216;-84
2023/07/02 01:57:09;;;;;;;5.68;2.15;;;;;;;23.89;55.19;98912.63;4466375;31;34090;-84
2023/07/02 01:59:36;;;;;;;1.62;1.50;;;;;;;23.88;55.18;98908.22;4478192;31;34572;-84
2023/07/02 02:02:04;;;;;;;4.07;2.42;;;;;;;23.92;54.98;98910.41;4475105;31;33010;-86
2023/07/02 02:04:33;;;;;;;4.18;1.80;;;;;;;23.86;55.25;98904.88;4477440;32;33549;-85
2023/07/02 02:07:02;;;;;;;2.12;1.92;;;;;;;23.88;54.97;98902.84;4464721;31;32622;-86
2023/07/02 02:09:32;;;;;;;1.90;1.12;;;;;;;23.85;54.99;98903.22;4464943;31;33815;-85
2023/07/02 02:12:00;;;;;;;1.12;1.02;;;;;;;23.68;55.24;98900.53;4478424;31;32659;-86
2023/07/02 02:14:27;;;;;;;2.17;1.80;;;;;;;23.56;56.00;98898.38;4492103;31;34309;-86
2023/07/02 02:16:55;;;;;;;1.02;0.93;;;;;;;23.77;55.16;98894.13;4464647;31;34894;-85
2023/07/02 02:19:23;;;;;;;1.85;1.75;;;;;;;23.62;55.78;98905.75;4480996;31;33926;-85
2023/07/02 02:21:50;;;;;;;0.88;0.88;;;;;;;23.61;55.59;98901.38;4476897;31;33176;-85
2023/07/02 02:24:18;;;;;;;2.03;1.62;;;;;;;23.66;55.49;98905.28;4475100;32;34044;-86
2023/07/02 02:26:47;;;;;;;1.65;1.55;;;;;;;23.59;55.66;98896.16;4463518;31;33299;-86
2023/07/02 02:29:14;;;;;;;3.85;0.75;;;;;;;23.52;55.94;98895.19;4475143;31;34164;-86
2023/07/02 02:31:43;;;;;;;1.15;1.15;;;;;;;23.80;54.75;98886.72;4475668;31;31827;-86
2023/07/02 02:34:11;;;;;;;1.80;1.50;;;;;;;23.62;55.30;98894.97;4451584;31;33154;-85
2023/07/02 02:36:40;;;;;;;0.88;0.88;;;;;;;23.46;55.74;98887.78;4475959;31;34152;-85
2023/07/02 02:39:07;;;;;;;2.10;1.70;;;;;;;23.32;56.09;98888.47;4475743;31;33903;-85
2023/07/02 02:41:35;;;;;;;2.40;1.50;;;;;;;23.51;55.31;98885.41;4475081;31;33077;-85
2023/07/02 02:44:03;;;;;;;1.08;1.08;;;;;;;23.78;54.37;98878.78;4477618;31;33851;-85
2023/07/02 02:46:31;;;;;;;3.78;1.02;;;;;;;23.71;54.42;98886.72;4463338;31;33413;-85
2023/07/02 02:48:58;;;;;;;1.55;1.37;;;;;;;23.58;54.83;98891.78;4477136;31;33520;-85
2023/07/02 02:51:26;;;;;;;2.92;1.55;;;;;;;23.81;54.03;98885.69;4473499;31;33539;-85
2023/07/02 02:53:54;;;;;;;1.50;1.40;;;;;;;23.66;54.15;98891.81;4465800;31;32661;-85
2023/07/02 02:56:21;;;;;;;1.35;1.20;;;;;;;23.94;53.34;98891.38;4490228;31;33480;-84
2023/07/02 02:58:49;;;;;;;1.42;1.10;;;;;;;23.82;53.46;98887.38;4462486;31;33567;-85
2023/07/02 03:01:17;;;;;;;1.15;1.08;;;;;;;23.70;54.06;98892.31;4475697;31;33954;-85
2023/07/02 03:03:45;;;;;;;0.85;0.85;;;;;;;23.49;54.48;98893.66;4476692;31;33914;-88
2023/07/02 03:06:14;;;;;;;1.58;1.33;;;;;;;23.54;54.32;98897.69;4476719;31;33590;-88
2023/07/02 03:08:44;;;;;;;0.52;0.52;;;;;;;23.30;54.60;98899.41;4478543;31;34199;-87
2023/07/02 03:11:11;;;;;;;1.20;1.10;;;;;;;23.62;53.67;98894.97;4476938;31;33709;-87
2023/07/02 03:13:39;;;;;;;3.65;1.55;;;;;;;23.45;54.09;98891.47;4474188;31;34779;-87
2023/07/02 03:16:07;;;;;;;0.43;0.43;;;;;;;23.50;53.99;98899.91;4463960;31;34192;-88
2023/07/02 03:18:35;;;;;;;1.05;0.98;;;;;;;23.55;53.61;98899.34;4472977;31;34049;-87
2023/07/02 03:21:02;;;;;;;2.65;1.17;;;;;;;23.56;53.67;98899.22;4464107;32;32475;-87
2023/07/02 03:23:30;;;;;;;0.60;0.60;;;;;;;23.47;53.70;98900.25;4470885;31;34536;-87
2023/07/02 03:25:58;;;;;;;0.98;0.88;;;;;;;23.54;53.62;98895.81;4476940;31;33732;-87
2023/07/02 03:28:25;;;;;;;2.87;1.95;;;;;;;23.00;54.96;98892.88;4476652;31;33882;-87
2023/07/02 03:30:53;;;;;;;1.02;0.93;;;;;;;23.10;54.81;98895.41;4453739;31;33669;-87
2023/07/02 03:33:21;;;;;;;1.33;1.23;;;;;;;23.12;54.15;98894.22;4464083;32;33572;-87
2023/07/02 03:35:48;;;;;;;0.77;0.75;;;;;;;23.45;53.33;98902.25;4464175;31;32411;-87
2023/07/02 03:38:16;;;;;;;2.20;0.75;;;;;;;23.25;53.75;98899.91;4448420;31;32764;-87
2023/07/02 03:40:44;;;;;;;1.73;1.58;;;;;;;23.19;54.02;98902.47;4461967;31;32786;-87
2023/07/02 03:43:12;;;;;;;1.27;1.12;;;;;;;23.15;54.20;98909.19;4487980;31;33576;-87
2023/07/02 03:45:40;;;;;;;0.73;0.73;;;;;;;23.08;53.95;98917.13;4463456;31;34358;-87
2023/07/02 03:48:07;;;;;;;2.25;1.77;;;;;;;23.08;53.76;98917.13;4477094;31;34240;-87
2023/07/02 03:50:35;;;;;;;0.50;0.50;;;;;;;23.31;53.24;98911.03;4461135;32;31963;-87
2023/07/02 03:53:02;;;;;;;1.48;0.85;;;;;;;23.25;53.45;98909.84;4461612;31;33464;-87
2023/07/02 03:55:30;;;;;;;0.52;0.45;;;;;;;23.29;52.96;98918.44;4458788;31;33022;-86
2023/07/02 03:57:58;;;;;;;1.75;0.85;;;;;;;23.11;53.26;98916.75;4462786;31;33744;-86
2023/07/02 04:00:26;;;;;;;0.43;0.43;;;;;;;23.14;53.48;98910.22;4460208;31;33314;-86
2023/07/02 04:02:53;;;;;;;4.30;0.95;;;;;;;23.35;52.89;98913.19;4463343;31;32343;-87
2023/07/02 04:05:21;;;;;;;1.12;1.08;;;;;;;23.30;53.23;98914.72;4491660;31;34857;-86
2023/07/02 04:07:48;;;;;;;0.43;0.43;;;;;;;23.35;52.71;98909.66;4475494;31;34692;-87
2023/07/02 04:10:16;;;;;;;0.52;0.52;;;;;;;23.44;52.39;98920.25;4477298;31;33409;-86
2023/07/02 04:12:44;;;;;;;2.05;1.00;;;;;;;23.62;51.63;98919.22;4463399;31;32357;-87
2023/07/02 04:15:12;;;;;;;0.80;0.73;;;;;;;23.40;51.89;98915.38;4479001;31;32522;-86
2023/07/02 04:17:39;;;;;;;0.98;0.98;;;;;;;23.55;51.95;98919.09;4476025;31;34498;-86
2023/07/02 04:20:08;;;;;;;0.57;0.57;;;;;;;23.39;51.88;98924.50;4464176;31;32891;-86
2023/07/02 04:22:35;;;;;;;0.98;0.73;;;;;;;23.21;52.62;98921.97;4477393;31;34644;-86
2023/07/02 04:25:04;;;;;;;1.25;1.10;;;;;;;23.41;51.86;98922.47;4465610;31;33041;-87
2023/07/02 04:27:56;;;;;;;0.65;0.52;;;;;;;23.47;51.89;98928.03;4477750;31;34251;-86
2023/07/02 04:30:24;;;;;;;0.50;0.50;;;;;;;23.68;51.37;98932.03;4463835;31;32315;-87
2023/07/02 04:32:52;;;;;;;1.62;1.52;;;;;;;23.58;51.52;98926.81;4466257;31;32951;-86
2023/07/02 04:35:20;;;;;;;1.33;1.23;;;;;;;23.79;50.82;98937.09;4452903;31;33051;-86
2023/07/02 04:37:47;;;;;;;0.30;0.30;;;;;;;23.72;51.13;98941.47;4463314;31;33810;-86
2023/07/02 04:40:15;;;;;;;1.40;1.30;;;;;;;23.39;51.75;98938.78;4461346;31;33509;-87
2023/07/02 04:42:48;;;;;;;0.95;0.57;;;;;;;23.50;51.49;98943.84;4479344;31;33856;-85
2023/07/02 04:45:16;;;;;;;0.37;0.35;;;;;;;23.43;51.21;98937.44;4482626;31;33048;-86
2023/07/02 04:47:45;;;;;;;1.02;0.60;;;;;;;23.43;51.60;98947.38;4477233;31;33247;-86
2023/07/02 04:50:12;;;;;;;0.35;0.28;;;;;;;23.49;51.30;98946.69;4466233;31;31956;-87
2023/07/02 04:52:41;;;;;;;1.65;1.30;;;;;;;23.62;51.09;98949.72;4473649;31;32040;-87
2023/07/02 04:55:09;;;;;;;0.35;0.35;;;;;;;23.54;51.21;98949.72;4447975;31;33347;-87
2023/07/02 04:57:37;;;;;;;1.00;0.90;;;;;;;23.86;50.47;98954.25;4473327;31;33303;-87
2023/07/02 05:00:08;;;;;;;0.60;0.60;;;;;;;23.83;50.54;98959.97;4460847;31;34150;-87
2023/07/02 05:02:36;;;;;;;3.00;0.77;;;;;;;23.97;50.60;98961.94;4449275;31;32025;-87
2023/07/02 05:05:04;;;;;;;0.60;0.60;;;;;;;23.79;51.05;98963.22;4458868;31;33847;-87
2023/07/02 05:07:31;;;;;;;0.50;0.35;;;;;;;24.05;50.35;98965.66;4451608;31;33294;-87
2023/07/02 05:09:59;;;;;;;0.50;0.50;;;;;;;23.94;50.47;98966.88;4464041;31;32124;-87
2023/07/02 05:12:27;;;;;;;1.52;1.02;;;;;;;24.12;49.96;98959.41;4463623;31;32117;-87
2023/07/02 05:14:54;;;;;;;1.00;0.65;;;;;;;24.13;50.29;98969.16;4465337;31;34802;-87
2023/07/02 05:17:22;;;;;;;0.93;0.70;;;;;;;23.85;50.84;98976.00;4458732;32;32427;-87
2023/07/02 05:19:50;;;;;;;0.50;0.50;;;;;;;23.96;50.45;98975.62;4461807;31;33575;-87
2023/07/02 05:22:18;;;;;;;2.90;0.13;;;;;;;24.16;50.06;98968.81;4461394;31;34572;-87
2023/07/02 05:24:46;;;;;;;2.12;1.40;;;;;;;23.98;50.58;98973.59;4459747;31;34392;-87
2023/07/02 05:27:14;;;;;;;0.60;0.60;;;;;;;23.84;51.28;98971.63;4457347;31;112021;-86
2023/07/02 05:29:42;;;;;;;0.80;0.40;;;;;;;23.87;51.21;98971.25;4460050;31;32697;-85
2023/07/02 05:32:10;;;;;;;0.68;0.43;;;;;;;24.12;50.45;98970.19;4452592;31;32469;-85
2023/07/02 05:34:38;;;;;;;0.40;0.40;;;;;;;24.01;50.68;98968.69;4455995;31;32407;-85
2023/07/02 05:37:06;;;;;;;1.25;0.68;;;;;;;24.19;50.25;98973.03;4474514;32;33834;-85
2023/07/02 05:39:34;;;;;;;1.55;1.20;;;;;;;24.01;51.07;98984.88;4465152;31;31671;-86
2023/07/02 05:42:01;;;;;;;2.30;0.80;;;;;;;24.34;50.07;98978.53;4472340;31;33001;-85
2023/07/02 05:44:29;;;;;;;0.73;0.73;;;;;;;23.97;50.62;98977.28;4446450;31;33305;-85
2023/07/02 05:46:56;;;;;;;1.42;1.00;;;;;;;24.64;49.22;98980.47;4456002;32;30826;-85
2023/07/02 05:49:26;;;;;;;0.70;0.70;;;;;;;24.24;50.34;98974.19;4472471;31;33056;-86
2023/07/02 05:51:53;;;;;;;0.68;0.68;;;;;;;24.23;49.84;98967.09;4446580;31;33208;-84
2023/07/02 05:54:21;;;;;;;0.80;0.80;;;;;;;24.22;50.16;98978.91;4468440;31;34779;-86
2023/07/02 05:56:48;;;;;;;1.70;1.15;;;;;;;24.05;50.84;98984.53;4483118;31;34325;-85
2023/07/02 05:59:18;;;;;;;0.80;0.65;;;;;;;24.43;50.02;98982.91;4482300;31;32749;-85
2023/07/02 06:01:46;;;;;;;1.48;1.37;;;;;;;24.20;50.74;98977.41;4466303;31;32877;-85
2023/07/02 06:04:14;;;;;;;0.77;0.77;;;;;;;24.55;49.31;98977.97;4454571;31;32816;-85
2023/07/02 06:06:42;;;;;;;0.60;0.60;;;;;;;24.70;48.64;98993.22;4461586;31;33658;-85
2023/07/02 06:09:09;;;;;;;0.75;0.75;;;;;;;24.52;48.99;98987.25;4469371;32;34081;-84
2023/07/02 06:11:38;;;;;;;2.55;1.37;;;;;;;25.11;48.36;98976.78;4461171;31;33522;-85
2023/07/02 06:14:05;;;;;;;0.20;0.20;;;;;;;24.82;48.83;98987.41;4470342;31;32813;-85
2023/07/02 06:16:33;;;;;;;0.85;0.52;;;;;;;25.04;48.87;98992.00;4465232;31;33566;-85
2023/07/02 06:19:01;;;;;;;0.35;0.35;;;;;;;24.71;49.06;98986.81;4472966;31;32792;-85
2023/07/02 06:21:30;;;;;;;0.90;0.90;;;;;;;24.88;48.49;98987.56;4471906;31;33826;-85
2023/07/02 06:23:58;;;;;;;1.37;0.88;;;;;;;24.92;48.31;98994.28;4461886;31;32843;-85
2023/07/02 06:26:26;;;;;;;0.75;0.75;;;;;;;24.98;48.08;98998.12;4474115;31;33512;-84
2023/07/02 06:28:54;;;;;;;0.22;0.22;;;;;;;25.37;48.38;98997.22;4470104;31;32981;-86
2023/07/02 06:31:21;;;;;;;0.25;0.25;;;;;;;25.31;47.30;98998.78;4458404;31;33667;-85
2023/07/02 06:33:49;;;;;;;1.30;0.90;;;;;;;25.23;47.67;99001.53;4467242;31;34793;-84
2023/07/02 06:36:17;;;;;;;1.00;0.90;;;;;;;25.32;47.51;98999.62;4470844;31;32802;-84
2023/07/02 06:38:45;;;;;;;0.40;0.40;;;;;;;25.38;48.12;99005.13;4489528;31;33399;-83
2023/07/02 06:41:13;;;;;;;0.52;0.52;;;;;;;25.44;47.59;99003.56;4477147;31;33947;-84
2023/07/02 06:43:43;;;;;;;0.43;0.43;;;;;;;25.59;47.91;99007.16;4476581;31;33713;-84
2023/07/02 06:46:11;;;;;;;1.33;0.88;;;;;;;25.76;47.24;99010.56;4473780;31;34540;-85
2023/07/02 06:48:40;;;;;;;8.60;0.32;;;;;;;25.75;47.01;99007.03;4462778;31;31984;-84
2023/07/02 06:51:08;;;;;;;0.50;0.50;;;;;;;25.83;47.38;99013.38;4463731;31;32035;-85
2023/07/02 06:53:37;;;;;;;0.77;0.77;;;;;;;25.96;47.15;99016.28;4459279;31;31718;-85
2023/07/02 06:56:04;;;;;;;1.10;0.57;;;;;;;25.75;47.27;99012.44;4472417;31;33922;-86
2023/07/02 06:58:32;;;;;;;0.98;0.75;;;;;;;25.82;47.94;99015.25;4451230;31;32740;-86
2023/07/02 07:01:01;;;;;;;0.30;0.30;;;;;;;26.18;47.41;99023.50;4463340;32;32602;-86
2023/07/02 07:03:28;;;;;;;0.20;0.20;;;;;;;26.10;47.45;99018.16;4440170;31;33378;-84
2023/07/02 07:05:57;;;;;;;1.37;1.10;;;;;;;26.32;47.20;99023.69;4465704;31;32063;-89
2023/07/02 07:08:24;;;;;;;1.77;1.25;;;;;;;26.40;47.12;99029.84;4450754;32;32323;-89
2023/07/02 07:10:52;;;;;;;0.28;0.28;;;;;;;26.18;46.95;99031.63;4465360;32;33970;-89
2023/07/02 07:13:20;;;;;;;3.25;1.65;;;;;;;26.16;45.87;99028.25;4465075;31;34090;-88
2023/07/02 07:15:48;;;;;;;1.58;1.35;;;;;;;26.36;46.38;99036.66;4463232;31;33796;-89
2023/07/02 07:18:18;;;;;;;0.57;0.57;;;;;;;26.72;44.21;99025.91;4457966;31;32421;-88
2023/07/02 07:20:46;;;;;;;1.25;0.85;;;;;;;26.66;43.87;99032.09;4455793;31;34768;-89
2023/07/02 07:23:15;;;;;;;0.80;0.57;;;;;;;26.36;43.52;99041.25;4457412;31;34864;-89
2023/07/02 07:25:49;;;;;;;0.45;0.40;;;;;;;26.64;43.33;99028.75;4441279;31;33681;-88
2023/07/02 07:28:17;;;;;;;0.52;0.52;;;;;;;26.99;43.16;99037.06;4449973;32;30536;-87
2023/07/02 07:30:45;;;;;;;0.30;0.30;;;;;;;26.99;44.19;99032.47;4456540;31;33300;-87
2023/07/02 07:33:13;;;;;;;0.28;0.28;;;;;;;27.02;43.03;99031.28;4452213;31;30957;-88
2023/07/02 07:35:40;;;;;;;0.82;0.82;;;;;;;27.19;43.98;99032.72;4440870;31;32576;-87
2023/07/02 07:38:14;;;;;;;1.73;1.63;;;;;;;27.46;42.61;99035.72;4443227;32;31881;-88
2023/07/02 07:40:43;;;;;;;0.20;0.20;;;;;;;27.59;42.90;99043.97;4466963;31;33835;-87
2023/07/02 07:43:11;;;;;;;0.52;0.52;;;;;;;28.04;42.71;99039.16;4469771;31;34435;-87
2023/07/02 07:45:39;;;;;;;0.50;0.50;;;;;;;28.03;41.59;99037.47;4443114;31;33029;-86
2023/07/02 07:48:07;;;;;;;0.65;0.57;;;;;;;27.75;42.60;99035.59;4464456;31;34362;-86
2023/07/02 07:50:34;;;;;;;0.55;0.55;;;;;;;28.24;40.99;99040.09;4455763;31;32712;-86
2023/07/02 07:53:02;;;;;;;3.12;1.87;;;;;;;28.52;39.83;99039.25;4454505;31;33233;-86
2023/07/02 07:55:30;;;;;;;0.62;0.50;;;;;;;28.26;41.18;99043.47;4459808;31;33336;-86
2023/07/02 07:57:57;;;;;;;1.08;1.08;;;;;;;28.45;40.71;99041.13;4453457;31;34738;-86
2023/07/02 08:00:26;;;;;;;0.68;0.68;;;;;;;28.00;41.92;99040.56;4453991;31;33463;-86
2023/07/02 08:02:55;;;;;;;0.95;0.82;;;;;;;28.07;40.86;99049.63;4484507;31;33688;-85
2023/07/02 08:05:23;;;;;;;1.35;1.25;;;;;;;28.28;39.64;99044.09;4451156;31;32472;-86
2023/07/02 08:07:50;;;;;;;0.35;0.35;;;;;;;27.88;41.52;99063.87;4440996;31;32439;-86
2023/07/02 08:10:19;;;;;;;2.62;1.95;;;;;;;27.39;42.72;99076.28;4437339;31;33154;-86
2023/07/02 08:12:55;;;;;;;0.37;0.37;;;;;;;27.98;42.03;99064.37;4439409;31;32994;-86
2023/07/02 08:15:33;;;;;;;0.80;0.80;;;;;;;28.02;40.96;99068.38;4434880;31;33128;-86
2023/07/02 08:18:07;;;;;;;0.25;0.25;;;;;;;28.04;40.33;99069.00;4435299;32;34476;-87
2023/07/02 08:20:38;;;;;;;0.90;0.65;;;;;;;27.94;39.92;99084.78;4446454;32;36976;-87
2023/07/02 08:23:06;;;;;;;0.28;0.28;;;;;;;27.70;40.46;99084.13;4467363;31;34723;-87
2023/07/02 08:25:34;;;;;;;0.30;0.20;;;;;;;27.39;40.79;99091.72;4442969;32;31173;-86
2023/07/02 08:28:02;;;;;;;0.43;0.43;;;;;;;27.41;40.90;99089.69;4454041;32;32481;-86
2023/07/02 08:30:29;;;;;;;3.37;1.10;;;;;;;27.21;41.86;99090.31;4470182;32;32627;-85
2023/07/02 08:32:57;;;;;;;0.50;0.50;;;;;;;28.02;39.55;99087.37;4455655;31;34047;-86
2023/07/02 08:35:25;;;;;;;1.00;0.80;;;;;;;28.26;39.88;99081.47;4450414;31;34488;-86
2023/07/02 08:37:53;;;;;;;0.47;0.47;;;;;;;28.24;39.55;99088.97;4474007;31;33762;-87
2023/07/02 08:40:20;;;;;;;0.47;0.47;;;;;;;28.27;39.18;99085.87;4459061;31;32544;-87
2023/07/02 08:42:49;;;;;;;1.48;0.20;;;;;;;28.50;39.07;99088.34;4444364;31;32809;-85
2023/07/02 08:45:16;;;;;;;0.75;0.75;;;;;;;28.96;37.77;99086.94;4486049;31;33653;-85
2023/07/02 08:47:45;;;;;;;0.37;0.37;;;;;;;28.48;39.92;99086.87;4470573;31;33177;-86
2023/07/02 08:50:13;;;;;;;0.47;0.47;;;;;;;28.70;39.01;99079.47;4457781;31;34426;-85
2023/07/02 08:52:42;;;;;;;3.30;1.67;;;;;;;28.26;39.94;99084.19;4466585;31;32628;-86
2023/07/02 08:55:10;;;;;;;1.50;1.30;;;;;;;28.41;39.67;99086.00;4460079;31;33844;-86
2023/07/02 08:57:51;;;;;;;0.22;0.22;;;;;;;28.21;40.93;99088.56;4453385;31;33979;-86
2023/07/02 09:00:20;;;;;;;1.85;0.37;;;;;;;28.88;39.60;99087.94;4464531;31;34210;-90
2023/07/02 09:02:49;;;;;;;1.12;1.08;;;;;;;28.55;39.15;99096.75;4453944;31;33936;-89
2023/07/02 09:05:17;;;;;;;0.40;0.40;;;;;;;28.47;38.35;99087.91;4446986;31;32953;-89
2023/07/02 09:07:48;;;;;;;0.28;0.22;;;;;;;29.18;38.34;99082.22;4460237;31;33549;-89
2023/07/02 09:10:31;;;;;;;0.68;0.40;;;;;;;29.55;38.42;99086.31;4450472;31;32660;-89
2023/07/02 09:13:03;;;;;;;0.82;0.82;;;;;;;29.70;37.90;99076.06;4448315;31;32642;-88
2023/07/02 09:15:39;;;;;;;1.85;1.10;;;;;;;29.80;38.11;99071.03;4461673;31;33271;-89
2023/07/02 09:18:21;;;;;;;0.37;0.37;;;;;;;30.34;38.17;99071.91;4453640;32;32649;-88
2023/07/02 09:20:54;;;;;;;0.85;0.82;;;;;;;30.48;34.94;99080.84;4469648;31;34415;-88
2023/07/02 09:23:22;;;;;;;3.08;1.00;;;;;;;29.79;35.96;99076.72;4457767;31;33563;-88
2023/07/02 09:25:50;;;;;;;0.60;0.60;;;;;;;29.80;36.28;99076.47;4451475;32;33829;-89
2023/07/02 09:28:19;;;;;;;0.40;0.40;;;;;;;29.86;37.11;99080.25;4453454;31;33184;-88
2023/07/02 09:30:54;;;;;;;0.88;0.88;;;;;;;29.92;36.19;99078.59;4444373;31;32808;-88
2023/07/02 09:33:27;;;;;;;1.05;0.50;;;;;;;30.39;37.12;99073.97;4468758;31;34003;-88
2023/07/02 09:35:55;;;;;;;0.40;0.40;;;;;;;30.06;36.40;99083.00;4455992;31;33878;-88
2023/07/02 09:38:23;;;;;;;0.40;0.40;;;;;;;30.58;35.77;99075.81;4460133;31;33431;-88
2023/07/02 09:40:52;;;;;;;0.68;0.50;;;;;;;30.92;35.35;99085.59;4444523;32;32990;-88
2023/07/02 09:43:21;;;;;;;0.40;0.40;;;;;;;30.71;35.52;99083.12;4462192;31;34736;-89
2023/07/02 09:45:50;;;;;;;1.70;0.85;;;;;;;30.62;35.60;99077.03;4458349;31;33592;-89
2023/07/02 09:48:25;;;;;;;1.40;0.88;;;;;;;30.82;35.57;99080.59;4455053;32;32025;-88
2023/07/02 09:50:54;;;;;;;0.75;0.75;;;;;;;31.10;33.45;99073.97;4436464;31;34307;-88
2023/07/02 09:53:21;;;;;;;1.10;0.80;;;;;;;30.89;34.49;99079.72;4452998;31;35314;-88
2023/07/02 09:55:49;;;;;;;2.65;0.95;;;;;;;31.36;35.84;99078.47;4452951;31;32425;-88
2023/07/02 09:58:17;;;;;;;0.50;0.50;;;;;;;31.57;33.53;99077.28;4442552;31;33658;-88
2023/07/02 10:00:44;;;;;;;11.55;2.12;;;;;;;31.79;31.92;99080.47;4455887;31;32818;-88
2023/07/02 10:03:13;;;;;;;0.43;0.43;;;;;;;31.23;33.61;99087.53;4458637;31;33400;-88
2023/07/02 10:05:40;;;;;;;0.13;0.13;;;;;;;31.19;34.11;99086.28;4444221;31;32456;-89
2023/07/02 10:08:13;;;;;;;1.17;1.08;;;;;;;31.73;33.08;99074.03;4462466;31;31669;-88
2023/07/02 10:10:41;;;;;;;0.57;0.52;;;;;;;31.34;33.31;99084.16;4450726;31;32700;-88
2023/07/02 10:13:09;;;;;;;2.85;1.30;;;;;;;31.49;32.75;99089.31;4449496;31;33680;-89
2023/07/02 10:15:40;;;;;;;0.50;0.50;;;;;;;31.93;32.79;99097.62;4449394;31;32017;-89
2023/07/02 10:18:07;;;;;;;1.55;0.80;;;;;;;31.25;33.20;99090.88;4465699;31;31934;-88
2023/07/02 10:20:40;;;;;;;0.75;0.75;;;;;;;31.65;33.23;99089.81;4451909;31;32524;-88
2023/07/02 10:23:09;;;;;;;1.27;0.75;;;;;;;31.76;32.76;99081.78;4450663;31;33529;-88
2023/07/02 10:25:38;;;;;;;0.28;0.28;;;;;;;31.31;34.13;99078.28;4473880;31;33550;-89
2023/07/02 10:28:19;;;;;;;0.30;0.30;;;;;;;31.36;34.50;99071.13;4463604;31;33375;-88
2023/07/02 10:30:47;;;;;;;0.57;0.57;;;;;;;31.58;33.39;99073.50;4461751;32;33404;-88
2023/07/02 10:33:16;;;;;;;0.60;0.47;;;;;;;31.33;34.23;99079.75;4445822;31;33502;-88
2023/07/02 10:35:47;;;;;;;0.75;0.75;;;;;;;31.14;33.86;99071.63;4476417;31;32909;-88
2023/07/02 10:38:26;;;;;;;0.55;0.55;;;;;;;31.20;33.49;99071.59;4458606;31;34210;-89
2023/07/02 10:40:58;;;;;;;0.68;0.65;;;;;;;31.40;33.06;99076.97;4452643;32;33323;-89
2023/07/02 10:43:30;;;;;;;0.68;0.68;;;;;;;31.31;33.44;99072.84;4462944;31;33532;-88
2023/07/02 10:46:04;;;;;;;1.95;0.88;;;;;;;31.74;33.00;99077.59;4445956;32;32524;-89
2023/07/02 10:48:32;;;;;;;0.65;0.65;;;;;;;32.21;33.49;99064.41;4471933;31;34106;-88
2023/07/02 10:51:11;;;;;;;0.50;0.50;;;;;;;31.98;32.69;99059.56;4476880;31;33927;-89
2023/07/02 10:53:39;;;;;;;0.65;0.52;;;;;;;31.93;32.26;99071.16;4455017;31;32576;-89
2023/07/02 10:56:06;;;;;;;4.57;0.68;;;;;;;32.17;31.97;99064.00;4460753;31;33882;-89
2023/07/02 10:58:42;;;;;;;1.05;0.80;;;;;;;31.70;32.15;99069.00;4461004;31;32907;-88
2023/07/02 11:01:10;;;;;;;0.73;0.73;;;;;;;31.96;31.88;99069.88;4453734;31;32364;-89
2023/07/02 11:03:39;;;;;;;1.80;0.35;;;;;;;31.67;32.69;99066.72;4475240;31;33645;-88
2023/07/02 11:06:06;;;;;;;0.25;0.22;;;;;;;32.15;31.76;99060.69;4458782;31;33393;-88
2023/07/02 11:08:35;;;;;;;0.10;0.10;;;;;;;31.92;32.99;99063.19;4453921;32;33211;-89
2023/07/02 11:11:07;;;;;;;1.05;0.70;;;;;;;31.98;32.69;99060.41;4461471;31;34627;-88
2023/07/02 11:13:44;;;;;;;0.20;0.20;;;;;;;32.05;32.08;99054.91;4467867;31;34720;-89
2023/07/02 11:16:24;;;;;;;1.08;1.00;;;;;;;31.87;32.03;99056.50;4450912;31;33462;-89
2023/07/02 11:19:10;;;;;;;0.52;0.52;;;;;;;31.79;31.80;99050.47;4471456;31;33386;-88
2023/07/02 11:21:37;;;;;;;0.77;0.77;;;;;;;31.42;32.50;99049.47;4461122;31;34216;-88
2023/07/02 11:24:08;;;;;;;0.32;0.32;;;;;;;31.51;32.03;99054.44;4462794;32;33868;-89
2023/07/02 11:26:39;;;;;;;0.35;0.35;;;;;;;31.53;31.61;99059.69;4454194;32;34538;-88
2023/07/02 11:29:11;;;;;;;0.60;0.60;;;;;;;31.28;32.93;99057.72;4476880;31;33338;-89
2023/07/02 11:31:38;;;;;;;1.60;0.85;;;;;;;31.31;34.42;99048.28;4460193;32;33613;-88
2023/07/02 11:34:21;;;;;;;1.95;0.65;;;;;;;30.93;32.68;99059.16;4461303;31;34009;-89
2023/07/02 11:36:53;;;;;;;0.88;0.88;;;;;;;31.66;32.47;99053.28;4440867;32;32502;-89
2023/07/02 11:39:21;;;;;;;0.20;0.20;;;;;;;31.55;32.05;99052.09;4471744;31;33924;-87
2023/07/02 11:41:50;;;;;;;0.28;0.28;;;;;;;31.95;32.85;99055.37;4469014;32;33865;-88